Time;durP1;ratioP1;P1;durP2;ratioP2;P2;SDS_P1;SDS_P2;PMS_P1;PMS_P2;Temp;Humidity;BMP_temperature;BMP_pressure;BME280_temperature;BME280_humidity;BME280_pressure;Samples;Min_cycle;Max_cycle;Signal;HPM_P1;HPM_P2
2024/03/29 00:01:07;;;;;;;4.70;1.15;;;8.30;99.90;;;;;;5099242;28;20028;-78
2024/03/29 00:03:33;;;;;;;2.50;1.42;;;8.30;99.90;;;;;;5098167;28;20024;-78
2024/03/29 00:06:00;;;;;;;2.55;0.98;;;8.30;99.90;;;;;;5097153;28;20510;-79
2024/03/29 00:08:26;;;;;;;2.45;1.42;;;8.20;99.90;;;;;;5087550;28;20055;-79
2024/03/29 00:10:52;;;;;;;6.80;1.38;;;8.20;99.90;;;;;;5077514;28;20021;-78
2024/03/29 00:13:18;;;;;;;4.95;1.48;;;8.30;99.90;;;;;;5109876;28;20020;-79
2024/03/29 00:15:45;;;;;;;4.88;1.05;;;8.30;99.90;;;;;;5090478;28;20028;-78
2024/03/29 00:18:11;;;;;;;4.93;1.73;;;8.30;99.90;;;;;;5082330;28;20032;-79
2024/03/29 00:20:36;;;;;;;3.85;1.40;;;8.30;99.90;;;;;;5081327;28;20035;-78
2024/03/29 00:23:05;;;;;;;3.45;1.63;;;8.30;99.90;;;;;;5090273;28;20485;-78
2024/03/29 00:25:31;;;;;;;4.45;1.77;;;8.30;99.90;;;;;;5095886;28;20048;-78
2024/03/29 00:28:01;;;;;;;4.18;1.52;;;8.30;99.90;;;;;;5097148;28;20041;-78
2024/03/29 00:30:26;;;;;;;4.40;1.77;;;8.30;99.90;;;;;;5098819;28;20047;-77
2024/03/29 00:32:52;;;;;;;7.85;1.85;;;8.20;99.90;;;;;;5097951;28;20330;-78
2024/03/29 00:35:23;;;;;;;4.70;1.90;;;8.20;99.90;;;;;;5097241;28;20057;-78
2024/03/29 00:37:49;;;;;;;3.50;2.25;;;8.20;99.90;;;;;;5099032;28;20049;-78
2024/03/29 00:40:18;;;;;;;3.92;1.70;;;8.20;99.90;;;;;;5098304;28;20103;-77
2024/03/29 00:42:45;;;;;;;4.40;1.38;;;8.20;99.90;;;;;;5084809;28;20025;-79
2024/03/29 00:45:11;;;;;;;4.40;1.23;;;8.10;99.90;;;;;;5076855;28;20036;-78
2024/03/29 00:47:40;;;;;;;3.35;1.40;;;8.20;99.90;;;;;;5079285;28;20028;-78
2024/03/29 00:50:09;;;;;;;3.90;1.58;;;8.10;99.90;;;;;;5101119;28;20102;-78
2024/03/29 00:52:35;;;;;;;4.28;1.27;;;8.10;99.90;;;;;;5101533;28;20031;-79
2024/03/29 00:55:05;;;;;;;3.22;1.35;;;8.10;99.90;;;;;;5101143;28;20024;-78
2024/03/29 00:57:30;;;;;;;2.63;1.20;;;8.10;99.90;;;;;;5092181;28;20092;-78
2024/03/29 00:59:59;;;;;;;5.70;1.85;;;8.10;99.90;;;;;;5102861;28;20064;-78
2024/03/29 01:02:24;;;;;;;2.42;1.20;;;8.10;99.90;;;;;;5101079;28;20479;-78
2024/03/29 01:04:52;;;;;;;4.28;1.00;;;8.00;99.90;;;;;;5101738;28;20020;-78
2024/03/29 01:07:18;;;;;;;1.38;1.08;;;8.10;99.90;;;;;;5101033;28;20024;-77
2024/03/29 01:09:44;;;;;;;3.17;1.30;;;8.10;99.90;;;;;;5090013;28;20048;-78
2024/03/29 01:12:10;;;;;;;4.68;1.42;;;8.10;99.90;;;;;;5080618;28;20029;-78
2024/03/29 01:14:38;;;;;;;2.90;1.13;;;8.20;99.90;;;;;;5100734;28;20020;-79
2024/03/29 01:17:11;;;;;;;4.18;1.10;;;8.20;99.90;;;;;;5100728;28;20426;-78
2024/03/29 01:19:36;;;;;;;4.78;1.17;;;8.10;99.90;;;;;;5102235;28;20040;-78
2024/03/29 01:22:02;;;;;;;1.98;1.10;;;8.10;99.90;;;;;;5116747;28;20063;-79
2024/03/29 01:24:28;;;;;;;4.32;1.08;;;8.10;99.90;;;;;;5091240;28;20078;-78
2024/03/29 01:26:54;;;;;;;2.42;1.00;;;8.10;99.90;;;;;;5095557;28;20485;-78
2024/03/29 01:29:20;;;;;;;3.40;2.15;;;8.10;99.90;;;;;;5063284;28;20038;-79
2024/03/29 01:31:45;;;;;;;2.35;1.15;;;8.10;99.90;;;;;;5082524;28;20020;-77
2024/03/29 01:34:11;;;;;;;2.42;1.10;;;8.10;99.90;;;;;;5101241;28;20024;-78
2024/03/29 01:36:36;;;;;;;3.83;1.00;;;8.10;99.90;;;;;;5101285;28;20035;-78
2024/03/29 01:39:02;;;;;;;3.42;1.48;;;8.10;99.90;;;;;;5100596;28;20072;-78
2024/03/29 01:41:28;;;;;;;6.82;1.25;;;8.10;99.90;;;;;;5099691;28;20028;-79
2024/03/29 01:43:54;;;;;;;2.53;1.05;;;8.10;99.90;;;;;;5099048;28;20024;-78
2024/03/29 01:46:23;;;;;;;5.20;1.10;;;8.10;99.90;;;;;;5100358;28;20057;-79
2024/03/29 01:48:51;;;;;;;5.00;1.10;;;8.10;99.90;;;;;;5101014;28;20023;-79
2024/03/29 01:51:21;;;;;;;7.18;1.58;;;8.00;99.90;;;;;;5099184;28;20066;-78
2024/03/29 01:53:50;;;;;;;2.35;1.00;;;8.10;99.90;;;;;;5100056;28;20008;-78
2024/03/29 01:56:16;;;;;;;3.83;1.00;;;8.00;99.90;;;;;;5100751;28;20058;-78
2024/03/29 01:58:43;;;;;;;6.32;1.60;;;8.00;99.90;;;;;;5098417;28;20016;-78
2024/03/29 02:01:09;;;;;;;2.97;1.00;;;8.00;99.90;;;;;;5099131;28;20020;-79
2024/03/29 02:03:36;;;;;;;5.18;1.40;;;8.00;99.90;;;;;;5098382;28;20020;-78
2024/03/29 02:06:03;;;;;;;2.25;1.33;;;8.00;99.90;;;;;;5100974;28;20035;-78
2024/03/29 02:08:29;;;;;;;6.13;1.10;;;8.00;99.90;;;;;;5100034;28;20066;-78
2024/03/29 02:10:57;;;;;;;3.20;1.00;;;8.10;99.90;;;;;;5099975;28;20020;-78
2024/03/29 02:13:26;;;;;;;4.07;1.13;;;8.00;99.90;;;;;;5098759;28;20020;-79
2024/03/29 02:15:52;;;;;;;11.75;1.30;;;8.10;99.90;;;;;;5100126;28;20016;-78
2024/03/29 02:18:17;;;;;;;2.42;1.17;;;8.10;99.90;;;;;;5090778;28;20023;-77
2024/03/29 02:20:43;;;;;;;3.33;0.95;;;8.10;99.90;;;;;;5099954;28;20118;-77
2024/03/29 02:23:17;;;;;;;5.07;0.90;;;8.00;99.90;;;;;;5100773;28;20020;-77
2024/03/29 02:25:43;;;;;;;4.07;1.00;;;8.10;99.90;;;;;;5099258;28;20070;-78
2024/03/29 02:28:09;;;;;;;3.35;1.05;;;8.10;99.90;;;;;;5100849;28;20020;-79
2024/03/29 02:30:34;;;;;;;5.80;1.30;;;8.20;99.90;;;;;;5099077;28;20024;-79
2024/03/29 02:33:00;;;;;;;3.85;1.23;;;8.20;99.90;;;;;;5098644;28;20242;-78
2024/03/29 02:35:27;;;;;;;8.27;1.58;;;8.20;99.90;;;;;;5098932;28;20024;-77
2024/03/29 02:37:55;;;;;;;4.90;1.58;;;8.20;99.90;;;;;;5097852;28;20024;-78
2024/03/29 02:40:20;;;;;;;4.47;1.25;;;8.20;99.90;;;;;;5098073;28;20032;-79
2024/03/29 02:42:48;;;;;;;5.50;1.30;;;8.20;99.90;;;;;;5099755;28;20051;-78
2024/03/29 02:45:14;;;;;;;6.95;1.40;;;8.10;99.90;;;;;;5098611;28;20032;-77
2024/03/29 02:47:41;;;;;;;7.60;1.65;;;8.10;99.90;;;;;;5082222;28;20050;-77
2024/03/29 02:50:09;;;;;;;2.53;1.00;;;8.10;99.90;;;;;;5098788;28;20023;-77
2024/03/29 02:52:35;;;;;;;6.22;1.17;;;8.00;99.90;;;;;;5098047;28;20078;-78
2024/03/29 02:55:01;;;;;;;2.30;1.00;;;8.00;99.90;;;;;;5098136;28;20077;-78
2024/03/29 02:57:30;;;;;;;3.53;1.30;;;8.00;99.90;;;;;;5086970;28;20024;-78
2024/03/29 02:59:56;;;;;;;5.40;1.45;;;8.10;99.90;;;;;;5083390;28;20020;-75
2024/03/29 03:02:22;;;;;;;2.50;1.55;;;8.00;99.90;;;;;;5093971;28;20473;-77
2024/03/29 03:04:48;;;;;;;2.42;1.38;;;8.00;99.90;;;;;;5098345;28;20028;-77
2024/03/29 03:12:59;;;;;;;4.82;1.50;;;7.90;99.90;;;;;;5090140;28;20039;-75
2024/03/29 03:15:24;;;;;;;4.50;1.45;;;7.90;99.90;;;;;;5094371;28;20021;-77
2024/03/29 03:17:50;;;;;;;4.53;1.40;;;7.80;99.90;;;;;;5096552;28;20024;-77
2024/03/29 03:20:16;;;;;;;4.45;1.08;;;7.80;99.90;;;;;;5098142;28;20028;-77
2024/03/29 03:22:42;;;;;;;4.32;0.98;;;7.70;99.90;;;;;;5081240;28;20086;-78
2024/03/29 03:25:08;;;;;;;1.27;1.05;;;7.60;99.90;;;;;;5098490;28;20119;-78
2024/03/29 03:27:34;;;;;;;3.30;1.02;;;7.60;99.90;;;;;;5095111;28;20066;-75
2024/03/29 03:30:00;;;;;;;4.57;0.93;;;7.60;99.90;;;;;;5081675;28;20700;-74
2024/03/29 03:32:25;;;;;;;3.60;1.00;;;7.50;99.90;;;;;;5082314;28;20334;-74
2024/03/29 03:34:51;;;;;;;4.18;0.85;;;7.50;99.90;;;;;;5082252;28;20020;-74
2024/03/29 03:37:20;;;;;;;4.00;0.90;;;7.50;99.90;;;;;;5091693;28;20057;-75
2024/03/29 03:39:45;;;;;;;4.75;0.80;;;7.50;99.90;;;;;;5092061;28;20514;-75
2024/03/29 03:42:13;;;;;;;5.53;0.98;;;7.50;99.90;;;;;;5090793;28;20032;-75
2024/03/29 03:44:42;;;;;;;5.68;1.05;;;7.60;99.90;;;;;;5091248;28;20024;-75
2024/03/29 03:47:10;;;;;;;2.80;0.90;;;7.60;99.90;;;;;;5090289;28;20435;-75
2024/03/29 03:49:35;;;;;;;2.88;0.90;;;7.60;99.90;;;;;;5090482;28;20497;-75
2024/03/29 03:52:02;;;;;;;2.13;0.88;;;7.70;99.90;;;;;;5090410;28;20158;-75
2024/03/29 03:54:29;;;;;;;4.88;0.93;;;7.70;99.90;;;;;;5073426;28;20040;-74
2024/03/29 03:56:55;;;;;;;7.97;1.63;;;7.70;99.90;;;;;;5091093;28;20497;-74
2024/03/29 03:59:21;;;;;;;2.00;0.98;;;7.70;99.90;;;;;;5076701;28;20682;-74
2024/03/29 04:01:46;;;;;;;3.03;0.90;;;7.70;99.90;;;;;;5092734;28;20024;-78
2024/03/29 04:04:12;;;;;;;3.38;0.80;;;7.70;99.90;;;;;;5098015;28;20028;-77
2024/03/29 04:06:37;;;;;;;2.67;1.00;;;7.70;99.90;;;;;;5097454;28;20027;-77
2024/03/29 04:09:03;;;;;;;2.35;1.50;;;7.70;99.90;;;;;;5096203;28;20093;-77
2024/03/29 04:11:32;;;;;;;7.15;1.35;;;7.70;99.90;;;;;;5092884;28;20027;-77
2024/03/29 04:13:58;;;;;;;5.43;1.30;;;7.70;99.90;;;;;;5096346;28;20027;-78
2024/03/29 04:16:24;;;;;;;4.95;1.25;;;7.80;99.90;;;;;;5097832;28;20020;-77
2024/03/29 04:18:49;;;;;;;6.13;1.00;;;7.80;99.90;;;;;;5095110;28;20497;-75
2024/03/29 04:21:15;;;;;;;4.50;1.52;;;7.80;99.90;;;;;;5091155;28;20028;-75
2024/03/29 04:23:41;;;;;;;4.45;1.27;;;7.80;99.90;;;;;;5089651;28;20052;-75
2024/03/29 04:26:06;;;;;;;5.47;0.93;;;7.80;99.90;;;;;;5090892;28;20024;-75
2024/03/29 04:28:32;;;;;;;5.45;1.10;;;7.80;99.90;;;;;;5091082;28;20020;-74
2024/03/29 04:30:59;;;;;;;4.53;1.45;;;7.70;99.90;;;;;;5079038;28;20021;-74
2024/03/29 04:33:26;;;;;;;3.47;0.90;;;7.70;99.90;;;;;;5086370;28;20548;-77
2024/03/29 04:35:58;;;;;;;7.50;1.33;;;7.70;99.90;;;;;;5097620;28;20051;-77
2024/03/29 04:38:24;;;;;;;2.72;1.00;;;7.70;99.90;;;;;;5098318;28;20093;-77
2024/03/29 04:40:52;;;;;;;2.58;0.93;;;7.70;99.90;;;;;;5099075;28;20024;-77
2024/03/29 04:43:17;;;;;;;5.22;1.48;;;7.60;99.90;;;;;;5098572;28;20028;-77
2024/03/29 04:45:44;;;;;;;5.05;1.30;;;7.70;99.90;;;;;;5099266;28;20111;-81
2024/03/29 04:48:12;;;;;;;8.25;1.08;;;7.70;99.90;;;;;;5082772;28;20129;-77
2024/03/29 04:50:39;;;;;;;5.15;1.45;;;7.70;99.90;;;;;;5081736;28;20024;-77
2024/03/29 04:53:05;;;;;;;2.67;1.05;;;7.70;99.90;;;;;;5082792;28;20058;-76
2024/03/29 04:55:32;;;;;;;4.78;1.25;;;7.80;99.90;;;;;;5080921;28;20028;-77
2024/03/29 04:58:01;;;;;;;3.30;1.13;;;7.80;99.90;;;;;;5099041;28;20032;-77
2024/03/29 05:00:30;;;;;;;4.22;1.52;;;7.80;99.90;;;;;;5099008;28;20032;-78
2024/03/29 05:02:55;;;;;;;1.88;0.82;;;7.80;99.90;;;;;;5098162;28;20066;-76
2024/03/29 05:05:22;;;;;;;8.93;1.60;;;7.80;99.90;;;;;;5096652;28;20036;-75
2024/03/29 05:07:48;;;;;;;5.50;1.33;;;7.80;99.90;;;;;;5092894;28;20024;-75
2024/03/29 05:10:22;;;;;;;5.53;1.40;;;7.80;99.90;;;;;;5092688;28;20107;-74
2024/03/29 05:12:48;;;;;;;2.83;1.00;;;7.90;99.90;;;;;;5092863;28;20040;-74
2024/03/29 05:15:15;;;;;;;5.20;1.20;;;7.90;99.90;;;;;;5085565;28;20043;-75
2024/03/29 05:17:43;;;;;;;3.58;1.40;;;7.90;99.90;;;;;;5074860;28;20374;-76
2024/03/29 05:20:12;;;;;;;7.57;1.20;;;8.00;99.90;;;;;;5081207;28;20397;-79
2024/03/29 05:22:37;;;;;;;4.82;1.50;;;8.00;99.90;;;;;;5078783;28;20481;-78
2024/03/29 05:25:04;;;;;;;5.25;1.25;;;8.00;99.90;;;;;;5082898;28;20027;-79
2024/03/29 05:27:29;;;;;;;2.88;1.20;;;8.10;99.90;;;;;;5087418;28;20025;-78
2024/03/29 05:29:55;;;;;;;4.38;1.10;;;8.10;99.90;;;;;;5087775;28;20020;-78
2024/03/29 05:32:21;;;;;;;5.78;1.10;;;8.10;99.90;;;;;;5073129;28;20024;-78
2024/03/29 05:34:47;;;;;;;9.27;1.45;;;8.20;99.90;;;;;;5079010;28;20021;-79
2024/03/29 05:37:12;;;;;;;7.32;1.35;;;8.20;99.90;;;;;;5081339;28;20016;-78
2024/03/29 05:39:38;;;;;;;4.50;1.20;;;8.20;99.90;;;;;;5086900;28;20062;-78
2024/03/29 05:42:03;;;;;;;4.63;1.00;;;8.20;99.90;;;;;;5076644;28;20429;-78
2024/03/29 05:44:29;;;;;;;4.60;1.35;;;8.30;99.90;;;;;;5086964;28;20024;-78
2024/03/29 05:46:55;;;;;;;4.38;1.30;;;8.30;99.90;;;;;;5097722;28;20024;-79
2024/03/29 05:49:20;;;;;;;2.20;1.05;;;8.30;99.90;;;;;;5097389;28;20020;-78
2024/03/29 05:51:46;;;;;;;9.52;1.40;;;8.20;99.90;;;;;;5098299;28;20019;-79
2024/03/29 05:54:11;;;;;;;6.28;1.60;;;8.20;99.90;;;;;;5098992;28;20270;-78
2024/03/29 05:56:37;;;;;;;4.13;1.10;;;8.20;99.90;;;;;;5099129;28;20535;-79
2024/03/29 05:59:03;;;;;;;1.50;1.02;;;8.30;99.90;;;;;;5094982;28;20027;-78
2024/03/29 06:01:32;;;;;;;1.77;0.90;;;8.20;99.90;;;;;;5092815;28;20020;-79
2024/03/29 06:04:06;;;;;;;2.13;1.00;;;8.30;99.90;;;;;;5095495;28;20024;-79
2024/03/29 06:06:32;;;;;;;4.80;1.38;;;8.30;99.90;;;;;;5093164;28;20020;-79
2024/03/29 06:08:57;;;;;;;5.72;1.15;;;8.30;99.90;;;;;;5093410;28;20066;-79
2024/03/29 06:11:23;;;;;;;5.38;1.20;;;8.40;99.90;;;;;;5085040;28;20031;-78
2024/03/29 06:19:12;;;;;;;1.10;0.93;;;8.50;99.90;;;;;;5095548;28;20058;-78
2024/03/29 06:21:39;;;;;;;6.10;1.63;;;8.50;99.90;;;;;;5093047;28;20028;-79
2024/03/29 06:24:14;;;;;;;3.80;1.65;;;8.50;99.90;;;;;;5090217;28;20101;-78
2024/03/29 06:26:41;;;;;;;7.95;1.50;;;8.60;99.90;;;;;;5089466;28;20114;-78
2024/03/29 06:29:09;;;;;;;3.42;1.27;;;8.50;99.90;;;;;;5077626;28;20024;-78
2024/03/29 06:31:35;;;;;;;7.75;2.03;;;8.50;99.90;;;;;;5092863;28;20111;-78
2024/03/29 06:34:04;;;;;;;4.68;1.20;;;8.50;99.90;;;;;;5094641;28;20028;-77
2024/03/29 06:36:31;;;;;;;4.18;1.25;;;8.50;99.90;;;;;;5092265;28;20016;-77
2024/03/29 06:38:57;;;;;;;4.63;1.15;;;8.40;99.90;;;;;;5070501;28;20036;-77
2024/03/29 06:41:22;;;;;;;5.00;1.60;;;8.40;99.90;;;;;;5077058;28;20100;-77
2024/03/29 06:43:48;;;;;;;4.60;1.60;;;8.40;99.90;;;;;;5080333;28;20017;-78
2024/03/29 06:46:15;;;;;;;3.17;1.00;;;8.40;99.90;;;;;;5078109;28;20103;-78
2024/03/29 06:48:44;;;;;;;4.68;1.30;;;8.40;99.90;;;;;;5070506;28;20230;-77
2024/03/29 06:51:10;;;;;;;1.60;0.90;;;8.40;99.90;;;;;;5079473;28;20028;-78
2024/03/29 06:53:37;;;;;;;2.92;1.17;;;8.40;99.90;;;;;;5093307;28;20020;-78
2024/03/29 06:56:03;;;;;;;3.97;1.40;;;8.50;99.90;;;;;;5096226;28;20066;-78
2024/03/29 06:58:29;;;;;;;5.57;1.35;;;8.50;99.90;;;;;;5094747;28;20431;-78
2024/03/29 07:01:00;;;;;;;7.07;1.52;;;8.50;99.90;;;;;;5091191;28;20024;-79
2024/03/29 07:03:26;;;;;;;2.63;0.75;;;8.60;99.90;;;;;;5075726;28;20496;-78
2024/03/29 07:05:54;;;;;;;3.13;0.90;;;8.60;99.90;;;;;;5086382;28;20028;-78
2024/03/29 07:08:20;;;;;;;2.88;0.80;;;8.60;99.90;;;;;;5091963;28;20111;-78
2024/03/29 07:10:46;;;;;;;5.53;0.90;;;8.60;99.90;;;;;;5090218;28;20044;-78
2024/03/29 07:13:14;;;;;;;2.88;0.77;;;8.60;99.90;;;;;;5088490;28;20488;-78
2024/03/29 07:15:50;;;;;;;2.80;1.00;;;8.60;99.90;;;;;;5087480;28;20077;-78
2024/03/29 07:18:15;;;;;;;2.42;1.10;;;8.70;99.90;;;;;;5097855;28;20074;-78
2024/03/29 07:20:41;;;;;;;4.18;1.42;;;8.60;99.90;;;;;;5093289;28;20016;-78
2024/03/29 07:23:06;;;;;;;4.55;0.90;;;8.70;99.90;;;;;;5087600;28;20065;-75
2024/03/29 07:25:35;;;;;;;3.13;1.77;;;8.70;99.90;;;;;;5072529;28;20029;-75
2024/03/29 07:28:03;;;;;;;2.45;1.00;;;8.70;99.90;;;;;;5068831;28;20032;-76
2024/03/29 07:30:29;;;;;;;3.08;1.55;;;8.80;99.90;;;;;;5060281;28;20496;-76
2024/03/29 07:32:55;;;;;;;1.98;1.05;;;8.80;99.90;;;;;;5066881;28;20115;-76
2024/03/29 07:35:24;;;;;;;3.80;1.00;;;8.90;99.90;;;;;;5068040;28;20021;-76
2024/03/29 07:37:51;;;;;;;2.22;1.15;;;8.90;99.90;;;;;;5067062;28;20143;-76
2024/03/29 07:40:17;;;;;;;2.92;1.60;;;8.90;99.90;;;;;;5077338;28;20024;-76
2024/03/29 07:42:42;;;;;;;3.10;1.15;;;8.90;99.90;;;;;;5089176;28;20031;-75
2024/03/29 07:45:08;;;;;;;1.10;0.90;;;8.90;99.90;;;;;;5081652;28;20024;-76
2024/03/29 07:47:34;;;;;;;4.22;1.05;;;9.00;99.90;;;;;;5080001;28;20020;-76
2024/03/29 07:50:00;;;;;;;2.72;1.45;;;9.00;99.90;;;;;;5083610;28;20020;-76
2024/03/29 07:52:25;;;;;;;2.85;1.33;;;9.10;99.90;;;;;;5091628;28;20020;-76
2024/03/29 07:54:51;;;;;;;6.63;1.40;;;9.10;99.90;;;;;;5082960;28;20054;-76
2024/03/29 07:57:19;;;;;;;2.97;1.23;;;9.10;99.90;;;;;;5079786;28;20026;-75
2024/03/29 07:59:50;;;;;;;2.53;1.17;;;9.20;99.90;;;;;;5088258;28;20111;-76
2024/03/29 08:02:16;;;;;;;2.80;1.30;;;9.30;99.90;;;;;;5076163;28;20019;-76
2024/03/29 08:04:43;;;;;;;5.95;1.48;;;9.30;99.90;;;;;;5083205;28;20095;-76
2024/03/29 08:07:09;;;;;;;1.48;1.00;;;9.40;99.90;;;;;;5080469;28;20428;-76
2024/03/29 08:09:35;;;;;;;2.80;1.20;;;9.40;99.90;;;;;;5087299;28;20342;-76
2024/03/29 08:12:01;;;;;;;5.50;1.50;;;9.40;99.90;;;;;;5079340;28;20016;-76
2024/03/29 08:14:27;;;;;;;3.13;1.45;;;9.40;99.90;;;;;;5073387;28;20020;-76
2024/03/29 08:17:02;;;;;;;3.15;1.77;;;9.50;99.90;;;;;;5087125;28;20020;-76
2024/03/29 08:19:27;;;;;;;3.00;1.48;;;9.40;99.90;;;;;;5079256;28;20020;-76
2024/03/29 08:21:53;;;;;;;2.05;1.10;;;9.50;99.90;;;;;;5079374;28;20051;-76
2024/03/29 08:24:19;;;;;;;3.83;1.30;;;9.50;99.90;;;;;;5083313;28;20084;-76
2024/03/29 08:26:45;;;;;;;2.50;1.20;;;9.60;99.90;;;;;;5083274;28;20032;-75
2024/03/29 08:29:11;;;;;;;4.95;1.23;;;9.80;99.90;;;;;;5083400;28;20028;-76
2024/03/29 08:31:36;;;;;;;2.63;1.20;;;10.00;99.90;;;;;;5069898;28;20071;-75
2024/03/29 08:34:02;;;;;;;3.50;1.13;;;10.10;99.90;;;;;;5064946;28;20105;-75
2024/03/29 08:36:27;;;;;;;2.47;0.95;;;10.20;99.90;;;;;;5065221;28;20020;-75
2024/03/29 08:38:56;;;;;;;2.65;1.20;;;10.30;99.90;;;;;;5065795;28;20020;-76
2024/03/29 08:41:24;;;;;;;4.00;1.17;;;10.40;99.90;;;;;;5064816;28;20035;-76
2024/03/29 08:43:50;;;;;;;3.47;1.20;;;10.50;99.90;;;;;;5063571;28;20025;-76
2024/03/29 08:46:16;;;;;;;3.65;1.10;;;10.70;99.90;;;;;;5068309;28;20487;-76
2024/03/29 08:48:45;;;;;;;1.48;0.90;;;10.90;99.90;;;;;;5063488;28;20131;-75
2024/03/29 08:51:14;;;;;;;3.50;1.10;;;11.20;99.90;;;;;;5066036;28;20028;-74
2024/03/29 08:53:43;;;;;;;2.65;1.10;;;11.30;99.90;;;;;;5062257;28;20039;-76
2024/03/29 08:56:08;;;;;;;3.40;1.17;;;11.40;99.90;;;;;;5065570;28;20021;-75
2024/03/29 08:58:34;;;;;;;3.70;2.60;;;11.50;99.90;;;;;;5060641;28;20021;-76
2024/03/29 09:01:04;;;;;;;3.17;0.82;;;11.50;99.90;;;;;;5061161;28;20021;-76
2024/03/29 09:03:33;;;;;;;3.15;1.20;;;11.50;99.90;;;;;;5065466;28;20417;-80
2024/03/29 09:05:59;;;;;;;4.95;1.02;;;11.60;99.90;;;;;;5067296;28;20095;-76
2024/03/29 09:08:27;;;;;;;2.22;0.90;;;11.70;99.90;;;;;;5070038;28;20023;-75
2024/03/29 09:10:55;;;;;;;1.63;0.95;;;11.80;99.90;;;;;;5069882;28;20045;-76
2024/03/29 09:13:21;;;;;;;3.42;1.00;;;11.80;99.90;;;;;;5078114;28;20054;-76
2024/03/29 09:15:50;;;;;;;2.38;1.10;;;11.80;99.90;;;;;;5066384;28;20459;-76
2024/03/29 09:18:26;;;;;;;2.63;0.95;;;11.70;99.90;;;;;;5066754;28;20423;-76
2024/03/29 09:21:01;;;;;;;1.25;0.80;;;11.50;99.90;;;;;;5065626;28;20028;-76
2024/03/29 09:23:28;;;;;;;4.47;1.17;;;11.40;99.90;;;;;;5065577;28;20020;-76
2024/03/29 09:25:54;;;;;;;1.88;1.00;;;11.30;99.90;;;;;;5069068;28;20059;-76
2024/03/29 09:28:21;;;;;;;0.85;0.80;;;11.20;99.90;;;;;;5067320;28;20025;-76
2024/03/29 09:30:48;;;;;;;0.85;0.63;;;11.20;99.90;;;;;;5067610;28;20056;-76
2024/03/29 09:33:14;;;;;;;1.42;0.95;;;11.20;99.90;;;;;;5070520;28;20148;-76
2024/03/29 09:35:43;;;;;;;1.25;0.90;;;11.20;99.90;;;;;;5066341;28;20461;-76
2024/03/29 09:38:09;;;;;;;2.72;1.00;;;11.20;99.90;;;;;;5091905;28;20024;-75
2024/03/29 09:40:35;;;;;;;3.97;0.90;;;11.30;99.90;;;;;;5095090;28;20024;-75
2024/03/29 09:43:04;;;;;;;1.15;0.93;;;11.30;99.90;;;;;;5086344;28;20028;-75
2024/03/29 09:45:35;;;;;;;1.05;0.82;;;11.20;99.90;;;;;;5086895;28;20449;-76
2024/03/29 09:48:05;;;;;;;2.75;1.27;;;11.30;99.90;;;;;;5091631;28;20458;-76
2024/03/29 09:50:38;;;;;;;1.00;0.75;;;11.30;99.90;;;;;;5096470;28;20075;-75
2024/03/29 09:53:10;;;;;;;0.93;0.80;;;11.30;99.90;;;;;;5091934;28;20024;-76
2024/03/29 09:55:37;;;;;;;1.17;0.90;;;11.40;99.90;;;;;;5092786;28;20103;-76
2024/03/29 09:58:06;;;;;;;3.03;1.30;;;11.40;99.90;;;;;;5095422;28;20054;-75
2024/03/29 10:00:38;;;;;;;2.33;0.98;;;11.50;99.90;;;;;;5095088;28;20467;-75
2024/03/29 10:03:08;;;;;;;1.63;1.13;;;11.50;99.90;;;;;;5093992;28;20028;-75
2024/03/29 10:05:34;;;;;;;2.45;1.13;;;11.40;99.90;;;;;;5092732;28;20290;-75
2024/03/29 10:08:04;;;;;;;1.33;1.10;;;11.40;99.90;;;;;;5097137;28;20493;-75
2024/03/29 10:10:31;;;;;;;1.40;1.02;;;11.40;99.90;;;;;;5092480;28;20020;-76
2024/03/29 10:12:57;;;;;;;1.58;0.80;;;11.40;99.90;;;;;;5094692;28;20053;-75
2024/03/29 10:15:26;;;;;;;1.73;1.00;;;11.40;99.90;;;;;;5090252;28;20008;-75
2024/03/29 10:17:52;;;;;;;2.33;1.30;;;11.40;99.90;;;;;;5098321;28;20028;-74
2024/03/29 10:20:18;;;;;;;0.98;0.82;;;11.50;99.90;;;;;;5082956;28;20024;-76
2024/03/29 10:22:45;;;;;;;1.30;1.05;;;11.50;99.90;;;;;;5097867;28;20024;-75
2024/03/29 10:25:15;;;;;;;1.63;0.85;;;11.50;99.90;;;;;;5093426;28;20047;-74
2024/03/29 10:27:41;;;;;;;2.15;1.50;;;11.50;99.90;;;;;;5092116;28;20078;-74
2024/03/29 10:30:08;;;;;;;5.78;0.90;;;11.50;99.90;;;;;;5089178;28;20361;-74
2024/03/29 10:32:36;;;;;;;1.08;0.80;;;11.60;99.90;;;;;;5079605;28;20016;-74
2024/03/29 10:35:02;;;;;;;1.63;0.88;;;11.70;99.90;;;;;;5091290;28;20493;-75
2024/03/29 10:37:32;;;;;;;1.27;0.80;;;11.90;99.90;;;;;;5091891;28;20274;-73
2024/03/29 10:39:58;;;;;;;2.87;1.17;;;12.20;99.90;;;;;;5082900;28;20034;-74
2024/03/29 10:42:27;;;;;;;1.13;1.02;;;12.50;99.90;;;;;;5089354;28;20115;-80
2024/03/29 10:44:54;;;;;;;1.37;0.87;;;12.90;99.90;;;;;;5083163;28;20052;-80
2024/03/29 10:47:20;;;;;;;1.42;0.82;;;13.30;99.90;;;;;;5085158;28;20028;-80
2024/03/29 10:49:58;;;;;;;2.28;0.82;;;13.70;99.90;;;;;;5072114;28;20016;-80
2024/03/29 10:52:27;;;;;;;1.65;1.00;;;13.90;99.90;;;;;;5070406;28;20149;-81
2024/03/29 10:54:56;;;;;;;0.77;0.70;;;13.90;99.90;;;;;;5073022;28;20021;-82
2024/03/29 10:57:29;;;;;;;1.73;0.60;;;14.20;99.90;;;;;;5079844;28;20024;-80
2024/03/29 11:00:14;;;;;;;1.05;0.70;;;14.30;99.90;;;;;;5069140;28;20029;-80
2024/03/29 11:02:55;;;;;;;0.55;0.55;;;14.70;99.90;;;;;;5079018;28;20102;-81
2024/03/29 11:05:22;;;;;;;1.13;0.73;;;15.00;99.90;;;;;;5072781;28;20043;-80
2024/03/29 11:07:50;;;;;;;0.65;0.50;;;15.00;99.90;;;;;;5091071;28;20020;-79
2024/03/29 11:10:30;;;;;;;0.50;0.40;;;15.30;99.90;;;;;;5073924;28;20070;-81
2024/03/29 11:13:26;;;;;;;0.77;0.60;;;16.00;99.90;;;;;;5070100;28;20071;-81
2024/03/29 11:15:53;;;;;;;0.43;0.38;;;16.80;99.90;;;;;;5070557;28;20028;-79
2024/03/29 11:18:20;;;;;;;0.50;0.50;;;17.30;98.80;;;;;;5072006;28;20021;-82
2024/03/29 11:20:50;;;;;;;1.95;0.55;;;17.30;98.00;;;;;;5061536;28;20099;-80
2024/03/29 11:23:19;;;;;;;1.20;0.50;;;17.00;99.10;;;;;;5063458;28;20031;-83
2024/03/29 11:25:59;;;;;;;0.80;0.50;;;16.90;98.00;;;;;;5081789;28;20043;-82
2024/03/29 11:28:29;;;;;;;;;;;16.30;99.20;;;;;;5075705;28;20371;-81
2024/03/29 11:30:59;;;;;;;0.97;0.40;;;16.10;99.60;;;;;;5072651;28;19904;-81
2024/03/29 11:33:48;;;;;;;1.63;0.60;;;15.90;99.90;;;;;;5078960;28;20349;-81
2024/03/29 11:36:17;;;;;;;1.25;0.57;;;16.00;99.50;;;;;;5068220;28;20036;-82
2024/03/29 11:38:46;;;;;;;1.92;0.65;;;16.10;99.40;;;;;;5064393;28;20134;-81
2024/03/29 11:41:27;;;;;;;0.40;0.40;;;16.50;99.20;;;;;;5087744;28;20024;-81
2024/03/29 11:43:53;;;;;;;0.82;0.57;;;16.70;98.70;;;;;;5090513;28;20123;-82
2024/03/29 11:46:20;;;;;;;0.60;0.50;;;16.40;98.40;;;;;;5090852;28;20477;-82
2024/03/29 11:48:49;;;;;;;0.65;0.57;;;16.30;99.60;;;;;;5089871;28;20040;-81
2024/03/29 11:51:18;;;;;;;1.75;0.55;;;16.50;98.70;;;;;;5092732;28;20387;-82
2024/03/29 11:53:44;;;;;;;0.55;0.50;;;16.70;97.80;;;;;;5072003;28;20039;-82
2024/03/29 11:56:37;;;;;;;0.82;0.60;;;16.90;98.00;;;;;;5063879;28;20074;-81
2024/03/29 11:59:03;;;;;;;1.25;0.60;;;17.20;98.40;;;;;;5081749;28;20036;-81
2024/03/29 12:01:32;;;;;;;0.73;0.50;;;17.50;96.70;;;;;;5079962;28;20154;-81
2024/03/29 12:04:00;;;;;;;1.40;0.90;;;17.40;96.60;;;;;;5071471;28;20032;-82
2024/03/29 12:06:28;;;;;;;0.63;0.60;;;17.20;96.70;;;;;;5078636;28;20033;-81
2024/03/29 12:08:55;;;;;;;1.23;0.90;;;17.30;97.10;;;;;;5085529;28;20169;-81
2024/03/29 12:11:21;;;;;;;0.90;0.70;;;16.80;96.80;;;;;;5089296;28;20016;-81
2024/03/29 12:13:48;;;;;;;1.77;0.50;;;17.00;96.90;;;;;;5085320;28;20057;-81
2024/03/29 12:16:16;;;;;;;0.88;0.60;;;17.00;96.00;;;;;;5090923;28;20058;-81
2024/03/29 12:18:47;;;;;;;0.70;0.70;;;16.60;96.50;;;;;;5076544;28;20461;-81
2024/03/29 12:21:15;;;;;;;1.05;0.70;;;16.50;97.20;;;;;;5090542;28;20030;-81
2024/03/29 12:23:50;;;;;;;1.77;0.68;;;16.20;97.50;;;;;;5090008;28;20028;-81
2024/03/29 12:26:22;;;;;;;0.93;0.50;;;16.00;97.80;;;;;;5090540;28;20035;-81
2024/03/29 12:28:48;;;;;;;0.80;0.70;;;16.00;97.60;;;;;;5091022;28;20362;-81
2024/03/29 12:31:14;;;;;;;0.80;0.57;;;15.90;98.00;;;;;;5094184;28;20024;-81
2024/03/29 12:33:39;;;;;;;0.73;0.70;;;16.10;97.70;;;;;;5091760;28;20390;-81
2024/03/29 12:36:06;;;;;;;0.75;0.75;;;16.00;98.00;;;;;;5091259;28;20111;-81
2024/03/29 12:38:33;;;;;;;1.88;0.70;;;16.00;98.50;;;;;;5098169;28;20055;-81
2024/03/29 12:40:59;;;;;;;1.10;0.73;;;15.80;98.20;;;;;;5089377;28;20594;-81
2024/03/29 12:43:26;;;;;;;3.63;0.85;;;15.60;98.80;;;;;;5099598;28;20088;-80
2024/03/29 12:45:57;;;;;;;1.80;0.60;;;15.60;99.10;;;;;;5105898;28;20114;-81
2024/03/29 12:48:23;;;;;;;0.98;0.52;;;15.60;99.20;;;;;;5105113;28;20027;-81
2024/03/29 12:50:50;;;;;;;1.38;0.77;;;15.40;99.30;;;;;;5088993;28;20023;-81
2024/03/29 12:53:22;;;;;;;1.10;0.63;;;15.30;99.90;;;;;;5074732;28;20028;-81
2024/03/29 12:55:48;;;;;;;3.25;0.90;;;15.30;99.90;;;;;;5067712;28;20470;-82
2024/03/29 12:58:20;;;;;;;0.60;0.60;;;15.30;99.90;;;;;;5072229;28;20035;-82
2024/03/29 13:00:46;;;;;;;1.02;0.68;;;15.30;99.90;;;;;;5088461;28;20050;-81
2024/03/29 13:03:12;;;;;;;2.25;0.73;;;15.00;99.90;;;;;;5075688;28;20398;-81
2024/03/29 13:05:42;;;;;;;5.18;0.90;;;15.10;99.90;;;;;;5076223;28;20020;-81